Leonard, Minnesota
Current Conditions -  °F | °C
As of 10:13 PM on Wednesday 28 Jan 2015 (Local Time) from KBJI Reporting Station
Overcast Overcast  
Wind Chill: 21°   Ceiling: 900
Heat Index: 32°   Visibility: 7mi
Dew Point: 30°   Wind: 15mph
Humidity: 94%   Direction: 320°NW
Pressure: 29.87"   Gusts: 21mph
Location:  47.65°N, 95.27°W
Report Text: KBJI 290413Z AUTO 32013G18KT 7SM OVC009 00/M01 A2987 RMK AO2 T10011010
Loading
Personal Weather Stations






























Interactive Weather Map New forecast layout! Learn more

10-Day Weather Forecast

Advertisements
Track Severe Weather on mobile